createdAt,value
2018-12-13T00:04:29.332Z,2.00
2018-12-13T00:09:32.666Z,2.80
2018-12-13T00:14:35.961Z,2.40
2018-12-13T00:19:39.281Z,2.00
2018-12-13T00:24:42.576Z,2.50
2018-12-13T00:29:45.875Z,2.00
2018-12-13T00:34:49.191Z,2.00
2018-12-13T00:39:52.548Z,2.75
2018-12-13T00:44:55.860Z,3.00
2018-12-13T00:49:59.170Z,3.00
2018-12-13T00:55:02.469Z,2.00
2018-12-13T01:00:06.432Z,2.00
2018-12-13T01:05:09.733Z,2.20
2018-12-13T01:10:13.081Z,2.00
2018-12-13T01:15:16.390Z,2.00
2018-12-13T01:20:19.680Z,2.00
2018-12-13T01:25:22.976Z,3.00
2018-12-13T01:30:26.271Z,2.75
2018-12-13T01:35:29.578Z,2.00
2018-12-13T01:40:32.873Z,2.00
2018-12-13T01:45:36.163Z,2.50
2018-12-13T01:50:39.461Z,2.00
2018-12-13T01:55:42.752Z,2.80
2018-12-13T02:00:46.068Z,2.00
2018-12-13T02:05:49.403Z,2.00
2018-12-13T02:10:52.713Z,2.00
2018-12-13T02:15:55.996Z,2.00
2018-12-13T02:20:59.300Z,2.25
2018-12-13T02:26:02.605Z,1.20
2018-12-13T02:31:05.942Z,2.25
2018-12-13T02:36:09.285Z,2.00
2018-12-13T02:41:12.594Z,2.00
2018-12-13T02:46:15.906Z,2.00
2018-12-13T02:51:19.210Z,2.00
2018-12-13T02:56:22.513Z,2.00
2018-12-13T03:01:25.808Z,1.40
2018-12-13T03:06:29.102Z,2.00
2018-12-13T03:11:32.412Z,1.80
2018-12-13T03:16:35.721Z,1.00
2018-12-13T03:21:39.031Z,1.00
2018-12-13T03:26:42.427Z,2.00
2018-12-13T03:31:45.735Z,2.00
2018-12-13T03:36:49.924Z,2.00
2018-12-13T03:41:53.212Z,1.00
2018-12-13T03:46:56.509Z,1.00
2018-12-13T03:51:59.822Z,1.80
2018-12-13T03:57:03.366Z,1.40
2018-12-13T04:02:06.656Z,2.00
2018-12-13T04:07:09.934Z,2.00
2018-12-13T04:12:13.233Z,2.00
2018-12-13T04:17:16.628Z,2.00
2018-12-13T04:22:19.909Z,2.00
2018-12-13T04:27:23.180Z,0.75
2018-12-13T04:32:26.462Z,2.00
2018-12-13T04:37:35.220Z,2.00
2018-12-13T04:42:35.062Z,1.50
2018-12-13T04:47:38.356Z,1.25
2018-12-13T04:52:41.676Z,1.80
2018-12-13T04:57:44.962Z,1.00
2018-12-13T05:02:48.285Z,2.00
2018-12-13T05:07:51.657Z,1.75
2018-12-13T05:12:55.140Z,2.00
2018-12-13T05:17:58.422Z,1.00
2018-12-13T05:23:01.720Z,2.00
2018-12-13T05:28:04.998Z,1.25
2018-12-13T05:33:08.345Z,1.00
2018-12-13T05:38:11.760Z,1.00
2018-12-13T05:43:15.091Z,2.00
2018-12-13T05:48:18.377Z,1.25
2018-12-13T05:53:21.652Z,2.00
2018-12-13T05:58:24.969Z,1.60
2018-12-13T06:03:28.245Z,1.75
2018-12-13T06:08:31.540Z,2.00
2018-12-13T06:13:34.818Z,2.00
2018-12-13T06:18:38.121Z,1.75
2018-12-13T06:23:41.404Z,1.25
2018-12-13T06:28:44.744Z,2.00
2018-12-13T06:33:48.186Z,1.40
2018-12-13T06:38:51.485Z,1.75
2018-12-13T06:43:54.770Z,2.00
2018-12-13T06:48:58.054Z,2.00
2018-12-13T06:54:01.333Z,1.50
2018-12-13T06:59:04.623Z,2.00
2018-12-13T07:04:07.905Z,1.00
2018-12-13T07:09:11.197Z,2.00
2018-12-13T07:14:14.492Z,1.50
2018-12-13T07:19:18.093Z,1.00
2018-12-13T07:24:21.368Z,1.75
2018-12-13T07:29:24.640Z,1.75
2018-12-13T07:34:27.968Z,1.00
2018-12-13T07:39:31.248Z,1.00
2018-12-13T07:44:34.567Z,1.25
2018-12-13T07:49:38.053Z,1.00
2018-12-13T07:54:41.365Z,24.20
2018-12-13T07:59:45.382Z,24.40
2018-12-13T08:04:48.743Z,22.60
2018-12-13T08:09:52.049Z,20.00
2018-12-13T08:14:55.418Z,18.50
2018-12-13T08:19:58.708Z,18.25
2018-12-13T08:25:02.019Z,18.00
2018-12-13T08:30:06.631Z,16.40
2018-12-13T08:35:09.924Z,16.80
2018-12-13T08:40:13.226Z,16.25
2018-12-13T08:45:16.523Z,16.20
2018-12-13T08:50:19.895Z,16.00
2018-12-13T08:55:23.887Z,14.40
2018-12-13T09:00:27.186Z,14.00
2018-12-13T09:05:30.517Z,14.00
2018-12-13T09:10:33.827Z,13.00
2018-12-13T09:15:37.127Z,13.75
2018-12-13T09:20:41.922Z,13.50
2018-12-13T09:25:45.352Z,13.25
2018-12-13T09:30:48.646Z,13.00
2018-12-13T09:35:51.941Z,12.75
2018-12-13T09:40:55.224Z,13.00
2018-12-13T09:45:58.512Z,11.80
2018-12-13T09:51:01.804Z,12.40
2018-12-13T09:56:05.109Z,13.00
2018-12-13T10:01:08.413Z,11.50
2018-12-13T10:06:11.716Z,12.00
2018-12-13T10:11:15.016Z,11.00
2018-12-13T10:16:18.348Z,11.20
2018-12-13T10:21:21.729Z,10.40
2018-12-13T10:26:25.029Z,12.00
2018-12-13T10:31:28.400Z,10.00
2018-12-13T10:36:31.702Z,11.50
2018-12-13T10:41:35.006Z,11.80
2018-12-13T10:46:38.327Z,11.00
2018-12-13T10:51:41.744Z,10.00
2018-12-13T10:56:45.044Z,10.50
2018-12-13T11:01:53.642Z,10.00
2018-12-13T11:06:57.305Z,10.00
2018-12-13T11:12:00.658Z,10.00
2018-12-13T11:17:03.964Z,9.00
2018-12-13T11:22:07.313Z,9.00
2018-12-13T11:28:22.765Z,10.20
2018-12-13T11:33:26.078Z,9.20
2018-12-13T11:38:29.362Z,8.75
2018-12-13T11:43:32.644Z,9.00
2018-12-13T11:48:35.950Z,8.00
2018-12-13T11:53:39.276Z,9.00
2018-12-13T11:58:42.613Z,10.00
2018-12-13T12:03:45.941Z,8.00
2018-12-13T12:08:49.236Z,9.00
2018-12-13T12:13:52.537Z,9.00
2018-12-13T12:18:55.841Z,9.00
2018-12-13T12:23:59.176Z,10.00
2018-12-13T12:29:02.641Z,9.00
2018-12-13T12:34:05.947Z,9.00
2018-12-13T12:39:09.261Z,8.80
2018-12-13T12:44:12.574Z,8.50
2018-12-13T12:49:15.988Z,8.00
2018-12-13T12:54:19.265Z,8.25
2018-12-13T12:59:22.563Z,7.80
2018-12-13T13:04:25.856Z,8.50
2018-12-13T13:09:29.198Z,7.50
2018-12-13T13:14:32.523Z,8.00
2018-12-13T13:19:35.822Z,7.00
2018-12-13T13:24:39.166Z,7.25
2018-12-13T13:29:42.588Z,8.00
2018-12-13T13:34:45.897Z,8.00
2018-12-13T13:39:49.278Z,9.00
2018-12-13T13:44:56.708Z,7.25
2018-12-13T13:49:59.989Z,8.00
2018-12-13T13:55:03.393Z,8.50
2018-12-13T14:00:06.961Z,8.00
2018-12-13T14:05:10.677Z,7.00
2018-12-13T14:10:13.959Z,8.00
2018-12-13T14:15:17.248Z,7.00
2018-12-13T14:20:20.540Z,6.60
2018-12-13T14:25:23.824Z,7.25
2018-12-13T14:30:27.115Z,7.00
2018-12-13T14:35:30.399Z,7.75
2018-12-13T14:40:33.697Z,7.00
2018-12-13T14:45:36.996Z,7.00
2018-12-13T14:50:40.285Z,7.25
2018-12-13T14:55:43.685Z,6.25
2018-12-13T15:00:46.980Z,7.00
2018-12-13T15:05:50.266Z,7.00
2018-12-13T15:10:53.578Z,7.00
2018-12-13T15:15:56.924Z,6.00
2018-12-13T15:21:00.208Z,7.75
2018-12-13T15:26:03.512Z,6.40
2018-12-13T15:31:06.806Z,5.80
2018-12-13T15:36:10.098Z,7.00
2018-12-13T15:41:13.389Z,6.00
2018-12-13T15:46:16.668Z,6.25
2018-12-13T15:51:19.968Z,6.20
2018-12-13T15:56:23.251Z,6.00
2018-12-13T16:01:26.541Z,6.00
2018-12-13T16:06:29.830Z,4.00
2018-12-13T16:11:33.122Z,4.00
2018-12-13T16:16:36.422Z,7.00
2018-12-13T16:21:39.735Z,6.00
2018-12-13T16:26:43.045Z,6.00
2018-12-13T16:31:46.337Z,6.00
2018-12-13T16:36:49.680Z,4.50
2018-12-13T16:41:53.850Z,6.25
2018-12-13T16:46:57.178Z,4.00
2018-12-13T16:57:07.661Z,6.00
2018-12-13T17:02:10.958Z,4.00
2018-12-13T17:07:14.278Z,6.00
2018-12-13T17:12:17.607Z,6.00
2018-12-13T17:17:20.929Z,4.40
2018-12-13T17:22:24.230Z,4.00
2018-12-13T17:27:27.537Z,5.80
2018-12-13T17:32:30.838Z,6.00
2018-12-13T17:37:34.139Z,4.00
2018-12-13T17:42:37.465Z,4.00
2018-12-13T17:47:40.778Z,4.00
2018-12-13T17:52:44.074Z,3.80
2018-12-13T17:57:47.368Z,4.00
2018-12-13T18:02:50.673Z,6.00
2018-12-13T18:07:53.981Z,4.00
2018-12-13T18:12:57.278Z,5.00
2018-12-13T18:18:00.562Z,4.80
2018-12-13T18:23:03.845Z,3.50
2018-12-13T18:28:07.157Z,4.00
2018-12-13T18:33:10.453Z,4.00
2018-12-13T18:43:23.285Z,4.00
2018-12-13T18:48:26.573Z,4.50
2018-12-13T18:53:29.861Z,4.00
2018-12-13T18:58:33.247Z,6.00
2018-12-13T19:03:36.634Z,4.50
2018-12-13T19:08:39.921Z,3.80
2018-12-13T19:13:43.221Z,5.00
2018-12-13T19:18:46.510Z,4.50
2018-12-13T19:23:49.810Z,4.00
2018-12-13T19:28:53.128Z,4.50
2018-12-13T19:33:56.427Z,4.00
2018-12-13T19:38:59.709Z,5.80
2018-12-13T19:44:03.005Z,4.00
2018-12-13T19:49:06.354Z,4.00
2018-12-13T19:54:09.672Z,4.40
2018-12-13T19:59:13.009Z,4.20
2018-12-13T20:04:16.305Z,4.40
2018-12-13T20:09:19.597Z,4.60
2018-12-13T20:14:22.916Z,4.40
2018-12-13T20:19:26.206Z,4.00
2018-12-13T20:24:30.620Z,9.00
2018-12-13T20:29:34.344Z,9.00
2018-12-13T20:34:37.659Z,10.50
2018-12-13T20:39:40.953Z,9.00
2018-12-13T20:44:44.258Z,8.50
2018-12-13T20:49:47.569Z,8.50
2018-12-13T20:54:50.869Z,7.00
2018-12-13T20:59:54.160Z,7.75
2018-12-13T21:04:57.465Z,7.25
2018-12-13T21:10:00.859Z,7.40
2018-12-13T21:15:04.761Z,7.00
2018-12-13T21:20:08.077Z,7.20
2018-12-13T21:25:11.390Z,7.00
2018-12-13T21:30:14.703Z,8.50
2018-12-13T21:35:18.004Z,6.00
2018-12-13T21:40:21.305Z,7.75
2018-12-13T21:45:24.605Z,7.50
2018-12-13T21:50:27.905Z,6.50
2018-12-13T21:55:31.392Z,5.50
2018-12-13T22:00:34.701Z,6.20
2018-12-13T22:05:37.976Z,7.25
2018-12-13T22:10:41.270Z,7.25
2018-12-13T22:15:44.585Z,7.00
2018-12-13T22:20:47.903Z,6.60
2018-12-13T22:25:51.201Z,5.00
2018-12-13T22:30:54.510Z,5.40
2018-12-13T22:35:57.793Z,5.00
2018-12-13T22:41:01.089Z,4.75
2018-12-13T22:46:04.641Z,6.50
2018-12-13T22:51:07.939Z,6.50
2018-12-13T22:56:11.229Z,5.25
2018-12-13T23:01:14.601Z,5.00
2018-12-13T23:06:17.910Z,5.00
2018-12-13T23:11:21.210Z,5.50
2018-12-13T23:16:24.509Z,5.00
2018-12-13T23:21:27.818Z,5.00
2018-12-13T23:26:31.118Z,5.00
2018-12-13T23:31:34.423Z,6.00
2018-12-13T23:36:37.757Z,5.00
2018-12-13T23:41:41.041Z,5.00
2018-12-13T23:46:44.377Z,4.50
2018-12-13T23:51:47.717Z,5.80
2018-12-13T23:56:51.023Z,5.00
